sensor_id;sensor_type;location;lat;lon;timestamp;temperature;humidity
8988;DHT22;4529;51.360;12.474;2023-07-29T00:04:09;20.50;99.90
8988;DHT22;4529;51.360;12.474;2023-07-29T00:09:13;20.60;99.90
8988;DHT22;4529;51.360;12.474;2023-07-29T00:14:17;20.50;99.90
8988;DHT22;4529;51.360;12.474;2023-07-29T00:19:21;20.40;99.90
8988;DHT22;4529;51.360;12.474;2023-07-29T00:24:26;20.40;99.90
8988;DHT22;4529;51.360;12.474;2023-07-29T00:29:30;20.40;99.90
8988;DHT22;4529;51.360;12.474;2023-07-29T00:34:34;20.30;99.90
8988;DHT22;4529;51.360;12.474;2023-07-29T00:39:38;20.30;99.90
8988;DHT22;4529;51.360;12.474;2023-07-29T00:44:42;20.10;99.90
8988;DHT22;4529;51.360;12.474;2023-07-29T00:49:46;20.10;99.90
8988;DHT22;4529;51.360;12.474;2023-07-29T00:54:50;20.00;99.90
8988;DHT22;4529;51.360;12.474;2023-07-29T00:59:54;20.00;99.90
8988;DHT22;4529;51.360;12.474;2023-07-29T01:04:58;20.00;99.90
8988;DHT22;4529;51.360;12.474;2023-07-29T01:10:15;20.20;99.90
8988;DHT22;4529;51.360;12.474;2023-07-29T01:15:24;20.20;99.90
8988;DHT22;4529;51.360;12.474;2023-07-29T01:20:26;20.30;99.90
8988;DHT22;4529;51.360;12.474;2023-07-29T01:25:30;20.30;99.90
8988;DHT22;4529;51.360;12.474;2023-07-29T01:30:37;20.30;99.90
8988;DHT22;4529;51.360;12.474;2023-07-29T01:35:45;20.40;99.90
8988;DHT22;4529;51.360;12.474;2023-07-29T01:40:48;20.40;99.90
8988;DHT22;4529;51.360;12.474;2023-07-29T01:45:50;20.40;99.90
8988;DHT22;4529;51.360;12.474;2023-07-29T01:50:54;20.50;99.90
8988;DHT22;4529;51.360;12.474;2023-07-29T01:55:58;20.50;99.90
8988;DHT22;4529;51.360;12.474;2023-07-29T02:01:02;20.40;99.90
8988;DHT22;4529;51.360;12.474;2023-07-29T02:06:06;20.40;99.90
8988;DHT22;4529;51.360;12.474;2023-07-29T02:11:10;20.40;99.90
8988;DHT22;4529;51.360;12.474;2023-07-29T02:16:14;20.30;99.90
8988;DHT22;4529;51.360;12.474;2023-07-29T02:21:18;20.30;99.90
8988;DHT22;4529;51.360;12.474;2023-07-29T02:26:22;20.40;99.90
8988;DHT22;4529;51.360;12.474;2023-07-29T02:31:25;20.30;99.90
8988;DHT22;4529;51.360;12.474;2023-07-29T02:36:28;20.30;99.90
8988;DHT22;4529;51.360;12.474;2023-07-29T02:41:32;20.30;99.90
8988;DHT22;4529;51.360;12.474;2023-07-29T02:46:35;20.30;99.90
8988;DHT22;4529;51.360;12.474;2023-07-29T02:51:39;20.20;99.90
8988;DHT22;4529;51.360;12.474;2023-07-29T02:56:42;20.10;99.90
8988;DHT22;4529;51.360;12.474;2023-07-29T03:01:46;20.10;99.90
8988;DHT22;4529;51.360;12.474;2023-07-29T03:06:49;20.00;99.90
8988;DHT22;4529;51.360;12.474;2023-07-29T03:11:53;19.90;99.90
8988;DHT22;4529;51.360;12.474;2023-07-29T03:16:56;19.90;99.90
8988;DHT22;4529;51.360;12.474;2023-07-29T03:21:59;19.90;99.90
8988;DHT22;4529;51.360;12.474;2023-07-29T03:27:03;19.60;99.90
8988;DHT22;4529;51.360;12.474;2023-07-29T03:32:06;19.60;99.90
8988;DHT22;4529;51.360;12.474;2023-07-29T03:37:11;19.70;99.90
8988;DHT22;4529;51.360;12.474;2023-07-29T03:42:14;19.70;99.90
8988;DHT22;4529;51.360;12.474;2023-07-29T03:47:18;19.60;99.90
8988;DHT22;4529;51.360;12.474;2023-07-29T03:52:21;19.60;99.90
8988;DHT22;4529;51.360;12.474;2023-07-29T03:57:25;19.50;99.90
8988;DHT22;4529;51.360;12.474;2023-07-29T04:02:28;19.40;99.90
8988;DHT22;4529;51.360;12.474;2023-07-29T04:07:32;19.40;99.90
8988;DHT22;4529;51.360;12.474;2023-07-29T04:12:35;19.40;99.90
8988;DHT22;4529;51.360;12.474;2023-07-29T04:17:39;19.40;99.90
8988;DHT22;4529;51.360;12.474;2023-07-29T04:22:42;19.40;99.90
8988;DHT22;4529;51.360;12.474;2023-07-29T04:27:46;19.40;99.90
8988;DHT22;4529;51.360;12.474;2023-07-29T04:32:49;19.50;99.90
8988;DHT22;4529;51.360;12.474;2023-07-29T04:37:53;19.50;99.90
8988;DHT22;4529;51.360;12.474;2023-07-29T04:42:56;19.60;99.90
8988;DHT22;4529;51.360;12.474;2023-07-29T04:48:04;19.60;99.90
8988;DHT22;4529;51.360;12.474;2023-07-29T04:53:08;19.70;99.90
8988;DHT22;4529;51.360;12.474;2023-07-29T04:58:11;19.80;99.90
8988;DHT22;4529;51.360;12.474;2023-07-29T05:03:15;20.00;99.90
8988;DHT22;4529;51.360;12.474;2023-07-29T05:08:18;20.10;99.90
8988;DHT22;4529;51.360;12.474;2023-07-29T05:13:22;20.20;99.90
8988;DHT22;4529;51.360;12.474;2023-07-29T05:18:25;20.40;99.90
8988;DHT22;4529;51.360;12.474;2023-07-29T05:23:29;20.60;99.90
8988;DHT22;4529;51.360;12.474;2023-07-29T05:28:32;20.80;99.90
8988;DHT22;4529;51.360;12.474;2023-07-29T05:33:36;21.00;99.90
8988;DHT22;4529;51.360;12.474;2023-07-29T05:38:39;21.10;99.90
8988;DHT22;4529;51.360;12.474;2023-07-29T05:43:43;21.30;99.90
8988;DHT22;4529;51.360;12.474;2023-07-29T05:48:46;21.40;99.90
8988;DHT22;4529;51.360;12.474;2023-07-29T05:53:49;21.50;99.90
8988;DHT22;4529;51.360;12.474;2023-07-29T05:58:54;21.60;99.90
8988;DHT22;4529;51.360;12.474;2023-07-29T06:03:57;21.50;99.90
8988;DHT22;4529;51.360;12.474;2023-07-29T06:09:01;21.70;99.90
8988;DHT22;4529;51.360;12.474;2023-07-29T06:14:05;22.00;99.90
8988;DHT22;4529;51.360;12.474;2023-07-29T06:19:09;22.10;99.90
8988;DHT22;4529;51.360;12.474;2023-07-29T06:24:13;22.30;99.90
8988;DHT22;4529;51.360;12.474;2023-07-29T06:29:17;22.60;99.90
8988;DHT22;4529;51.360;12.474;2023-07-29T06:34:21;22.80;99.90
8988;DHT22;4529;51.360;12.474;2023-07-29T06:39:25;22.90;99.90
8988;DHT22;4529;51.360;12.474;2023-07-29T06:44:29;23.10;99.90
8988;DHT22;4529;51.360;12.474;2023-07-29T06:49:34;23.10;99.90
8988;DHT22;4529;51.360;12.474;2023-07-29T06:54:38;23.40;99.90
8988;DHT22;4529;51.360;12.474;2023-07-29T06:59:42;23.60;99.90
8988;DHT22;4529;51.360;12.474;2023-07-29T07:04:45;23.50;99.90
8988;DHT22;4529;51.360;12.474;2023-07-29T07:09:49;23.50;99.90
8988;DHT22;4529;51.360;12.474;2023-07-29T07:14:53;23.90;99.90
8988;DHT22;4529;51.360;12.474;2023-07-29T07:20:02;24.10;99.90
8988;DHT22;4529;51.360;12.474;2023-07-29T07:25:05;24.10;99.90
8988;DHT22;4529;51.360;12.474;2023-07-29T07:30:09;24.20;99.90
8988;DHT22;4529;51.360;12.474;2023-07-29T07:35:12;24.10;99.90
8988;DHT22;4529;51.360;12.474;2023-07-29T07:40:16;23.90;99.90
8988;DHT22;4529;51.360;12.474;2023-07-29T07:45:20;23.90;99.90
8988;DHT22;4529;51.360;12.474;2023-07-29T07:50:25;24.00;99.90
8988;DHT22;4529;51.360;12.474;2023-07-29T07:55:29;24.10;99.90
8988;DHT22;4529;51.360;12.474;2023-07-29T08:00:33;24.30;99.90
8988;DHT22;4529;51.360;12.474;2023-07-29T08:05:37;24.10;99.90
8988;DHT22;4529;51.360;12.474;2023-07-29T08:10:41;24.40;99.90
8988;DHT22;4529;51.360;12.474;2023-07-29T08:15:48;24.50;99.90
8988;DHT22;4529;51.360;12.474;2023-07-29T08:20:58;24.50;99.90
8988;DHT22;4529;51.360;12.474;2023-07-29T08:25:58;24.20;99.90
8988;DHT22;4529;51.360;12.474;2023-07-29T08:31:01;24.00;99.90
8988;DHT22;4529;51.360;12.474;2023-07-29T08:36:05;24.00;99.90
8988;DHT22;4529;51.360;12.474;2023-07-29T08:41:16;23.90;99.90
8988;DHT22;4529;51.360;12.474;2023-07-29T08:46:18;23.70;99.90
8988;DHT22;4529;51.360;12.474;2023-07-29T08:51:21;23.90;99.90
8988;DHT22;4529;51.360;12.474;2023-07-29T08:56:24;24.30;99.90
8988;DHT22;4529;51.360;12.474;2023-07-29T09:01:28;24.60;99.90
8988;DHT22;4529;51.360;12.474;2023-07-29T09:06:31;24.80;99.90
8988;DHT22;4529;51.360;12.474;2023-07-29T09:11:35;24.90;99.90
8988;DHT22;4529;51.360;12.474;2023-07-29T09:16:38;25.10;99.90
8988;DHT22;4529;51.360;12.474;2023-07-29T09:21:42;25.40;99.90
8988;DHT22;4529;51.360;12.474;2023-07-29T09:26:51;25.50;99.90
8988;DHT22;4529;51.360;12.474;2023-07-29T09:32:05;25.80;99.90
8988;DHT22;4529;51.360;12.474;2023-07-29T09:36:59;25.80;99.90
8988;DHT22;4529;51.360;12.474;2023-07-29T09:42:03;25.80;99.90
8988;DHT22;4529;51.360;12.474;2023-07-29T09:47:06;25.90;99.90
8988;DHT22;4529;51.360;12.474;2023-07-29T09:52:18;26.00;99.90
8988;DHT22;4529;51.360;12.474;2023-07-29T09:57:21;26.00;99.90
8988;DHT22;4529;51.360;12.474;2023-07-29T10:02:25;25.90;99.90
8988;DHT22;4529;51.360;12.474;2023-07-29T10:07:28;25.90;99.90
8988;DHT22;4529;51.360;12.474;2023-07-29T10:12:32;25.90;99.90
8988;DHT22;4529;51.360;12.474;2023-07-29T10:17:36;25.80;99.90
8988;DHT22;4529;51.360;12.474;2023-07-29T10:22:39;25.80;99.90
8988;DHT22;4529;51.360;12.474;2023-07-29T10:27:49;25.90;99.90
8988;DHT22;4529;51.360;12.474;2023-07-29T10:32:51;26.00;99.90
8988;DHT22;4529;51.360;12.474;2023-07-29T10:37:54;25.90;99.90
8988;DHT22;4529;51.360;12.474;2023-07-29T10:43:10;26.00;99.90
8988;DHT22;4529;51.360;12.474;2023-07-29T10:48:13;25.90;99.90
8988;DHT22;4529;51.360;12.474;2023-07-29T10:53:16;25.70;99.90
8988;DHT22;4529;51.360;12.474;2023-07-29T10:58:19;25.50;99.90
8988;DHT22;4529;51.360;12.474;2023-07-29T11:03:23;25.50;99.90
8988;DHT22;4529;51.360;12.474;2023-07-29T11:08:29;25.50;99.90
8988;DHT22;4529;51.360;12.474;2023-07-29T11:13:36;25.50;99.90
8988;DHT22;4529;51.360;12.474;2023-07-29T11:18:36;25.60;99.90
8988;DHT22;4529;51.360;12.474;2023-07-29T11:23:39;25.60;99.90
8988;DHT22;4529;51.360;12.474;2023-07-29T11:28:43;25.70;99.90
8988;DHT22;4529;51.360;12.474;2023-07-29T11:33:46;25.90;99.90
8988;DHT22;4529;51.360;12.474;2023-07-29T11:38:50;26.00;99.90
8988;DHT22;4529;51.360;12.474;2023-07-29T11:43:53;26.00;99.90
8988;DHT22;4529;51.360;12.474;2023-07-29T11:48:57;26.00;99.90
8988;DHT22;4529;51.360;12.474;2023-07-29T11:54:00;26.00;99.90
8988;DHT22;4529;51.360;12.474;2023-07-29T11:59:04;26.10;99.90
8988;DHT22;4529;51.360;12.474;2023-07-29T12:04:07;26.10;99.90
8988;DHT22;4529;51.360;12.474;2023-07-29T12:09:11;26.10;99.90
8988;DHT22;4529;51.360;12.474;2023-07-29T12:14:16;26.20;99.90
8988;DHT22;4529;51.360;12.474;2023-07-29T12:19:22;26.30;99.90
8988;DHT22;4529;51.360;12.474;2023-07-29T12:24:26;26.40;99.90
8988;DHT22;4529;51.360;12.474;2023-07-29T12:29:30;26.30;99.90
8988;DHT22;4529;51.360;12.474;2023-07-29T12:34:35;26.20;99.90
8988;DHT22;4529;51.360;12.474;2023-07-29T12:39:41;26.20;99.90
8988;DHT22;4529;51.360;12.474;2023-07-29T12:44:45;26.20;99.90
8988;DHT22;4529;51.360;12.474;2023-07-29T12:49:49;26.20;99.90
8988;DHT22;4529;51.360;12.474;2023-07-29T12:54:54;26.40;99.90
8988;DHT22;4529;51.360;12.474;2023-07-29T12:59:58;26.50;99.90
8988;DHT22;4529;51.360;12.474;2023-07-29T13:05:01;26.40;99.90
8988;DHT22;4529;51.360;12.474;2023-07-29T13:10:05;26.60;99.90
8988;DHT22;4529;51.360;12.474;2023-07-29T13:15:09;26.70;99.90
8988;DHT22;4529;51.360;12.474;2023-07-29T13:20:13;26.80;99.90
8988;DHT22;4529;51.360;12.474;2023-07-29T13:25:17;27.00;99.90
8988;DHT22;4529;51.360;12.474;2023-07-29T13:30:21;27.10;99.90
8988;DHT22;4529;51.360;12.474;2023-07-29T13:35:25;27.20;99.90
8988;DHT22;4529;51.360;12.474;2023-07-29T13:40:29;27.30;99.90
8988;DHT22;4529;51.360;12.474;2023-07-29T13:45:34;27.50;99.90
8988;DHT22;4529;51.360;12.474;2023-07-29T13:50:38;27.50;99.90
8988;DHT22;4529;51.360;12.474;2023-07-29T13:55:42;27.60;99.90
8988;DHT22;4529;51.360;12.474;2023-07-29T14:00:46;27.60;99.90
8988;DHT22;4529;51.360;12.474;2023-07-29T14:05:50;27.60;99.90
8988;DHT22;4529;51.360;12.474;2023-07-29T14:10:54;27.60;99.90
8988;DHT22;4529;51.360;12.474;2023-07-29T14:16:00;27.70;99.90
8988;DHT22;4529;51.360;12.474;2023-07-29T14:21:02;27.70;99.90
8988;DHT22;4529;51.360;12.474;2023-07-29T14:26:07;27.70;99.90
8988;DHT22;4529;51.360;12.474;2023-07-29T14:31:11;27.70;99.90
8988;DHT22;4529;51.360;12.474;2023-07-29T14:36:15;27.60;99.90
8988;DHT22;4529;51.360;12.474;2023-07-29T14:41:19;27.50;99.90
8988;DHT22;4529;51.360;12.474;2023-07-29T14:46:23;27.30;99.90
8988;DHT22;4529;51.360;12.474;2023-07-29T14:51:30;26.90;99.90
8988;DHT22;4529;51.360;12.474;2023-07-29T14:56:34;26.90;99.90
8988;DHT22;4529;51.360;12.474;2023-07-29T15:01:37;26.50;99.90
8988;DHT22;4529;51.360;12.474;2023-07-29T15:06:41;26.10;99.90
8988;DHT22;4529;51.360;12.474;2023-07-29T15:11:55;24.70;99.90
8988;DHT22;4529;51.360;12.474;2023-07-29T15:16:59;24.70;99.90
8988;DHT22;4529;51.360;12.474;2023-07-29T15:22:03;23.70;99.90
8988;DHT22;4529;51.360;12.474;2023-07-29T15:27:07;23.10;99.90
8988;DHT22;4529;51.360;12.474;2023-07-29T15:32:11;22.70;99.90
8988;DHT22;4529;51.360;12.474;2023-07-29T15:37:15;22.20;99.90
8988;DHT22;4529;51.360;12.474;2023-07-29T15:42:20;21.70;99.90
8988;DHT22;4529;51.360;12.474;2023-07-29T15:47:24;21.40;99.90
8988;DHT22;4529;51.360;12.474;2023-07-29T15:52:28;21.20;99.90
8988;DHT22;4529;51.360;12.474;2023-07-29T15:57:32;21.10;99.90
8988;DHT22;4529;51.360;12.474;2023-07-29T16:02:36;21.20;99.90
8988;DHT22;4529;51.360;12.474;2023-07-29T16:07:40;21.20;99.90
8988;DHT22;4529;51.360;12.474;2023-07-29T16:12:44;21.30;99.90
8988;DHT22;4529;51.360;12.474;2023-07-29T16:17:48;21.30;99.90
8988;DHT22;4529;51.360;12.474;2023-07-29T16:22:53;21.30;99.90
8988;DHT22;4529;51.360;12.474;2023-07-29T16:27:57;21.30;99.90
8988;DHT22;4529;51.360;12.474;2023-07-29T16:33:01;21.40;99.90
8988;DHT22;4529;51.360;12.474;2023-07-29T16:38:05;21.50;99.90
8988;DHT22;4529;51.360;12.474;2023-07-29T16:43:09;21.70;99.90
8988;DHT22;4529;51.360;12.474;2023-07-29T16:48:13;21.70;99.90
8988;DHT22;4529;51.360;12.474;2023-07-29T16:53:17;21.60;99.90
8988;DHT22;4529;51.360;12.474;2023-07-29T16:58:21;21.60;99.90
8988;DHT22;4529;51.360;12.474;2023-07-29T17:03:24;21.60;99.90
8988;DHT22;4529;51.360;12.474;2023-07-29T17:08:28;21.60;99.90
8988;DHT22;4529;51.360;12.474;2023-07-29T17:13:31;21.70;99.90
8988;DHT22;4529;51.360;12.474;2023-07-29T17:18:35;21.80;99.90
8988;DHT22;4529;51.360;12.474;2023-07-29T17:23:38;21.70;99.90
8988;DHT22;4529;51.360;12.474;2023-07-29T17:28:42;21.80;99.90
8988;DHT22;4529;51.360;12.474;2023-07-29T17:33:45;21.80;99.90
8988;DHT22;4529;51.360;12.474;2023-07-29T17:38:49;21.70;99.90
8988;DHT22;4529;51.360;12.474;2023-07-29T17:43:52;21.70;99.90
8988;DHT22;4529;51.360;12.474;2023-07-29T17:48:55;21.80;99.90
8988;DHT22;4529;51.360;12.474;2023-07-29T17:53:59;21.70;99.90
8988;DHT22;4529;51.360;12.474;2023-07-29T17:59:02;21.60;99.90
8988;DHT22;4529;51.360;12.474;2023-07-29T18:04:07;21.70;99.90
8988;DHT22;4529;51.360;12.474;2023-07-29T18:09:11;21.70;99.90
8988;DHT22;4529;51.360;12.474;2023-07-29T18:14:14;21.70;99.90
8988;DHT22;4529;51.360;12.474;2023-07-29T18:19:18;21.60;99.90
8988;DHT22;4529;51.360;12.474;2023-07-29T18:24:22;21.50;99.90
8988;DHT22;4529;51.360;12.474;2023-07-29T18:29:26;21.60;99.90
8988;DHT22;4529;51.360;12.474;2023-07-29T18:34:30;21.70;99.90
8988;DHT22;4529;51.360;12.474;2023-07-29T18:39:34;21.60;99.90
8988;DHT22;4529;51.360;12.474;2023-07-29T18:44:38;21.60;99.90
8988;DHT22;4529;51.360;12.474;2023-07-29T18:49:45;21.60;99.90
8988;DHT22;4529;51.360;12.474;2023-07-29T18:54:49;21.60;99.90
8988;DHT22;4529;51.360;12.474;2023-07-29T18:59:52;21.50;99.90
8988;DHT22;4529;51.360;12.474;2023-07-29T19:04:56;21.40;99.90
8988;DHT22;4529;51.360;12.474;2023-07-29T19:09:59;21.40;99.90
8988;DHT22;4529;51.360;12.474;2023-07-29T19:15:03;21.30;99.90
8988;DHT22;4529;51.360;12.474;2023-07-29T19:20:06;21.20;99.90
8988;DHT22;4529;51.360;12.474;2023-07-29T19:25:10;21.20;99.90
8988;DHT22;4529;51.360;12.474;2023-07-29T19:30:13;21.10;99.90
8988;DHT22;4529;51.360;12.474;2023-07-29T19:35:17;20.90;99.90
8988;DHT22;4529;51.360;12.474;2023-07-29T19:40:21;20.90;99.90
8988;DHT22;4529;51.360;12.474;2023-07-29T19:45:25;20.90;99.90
8988;DHT22;4529;51.360;12.474;2023-07-29T19:50:28;20.80;99.90
8988;DHT22;4529;51.360;12.474;2023-07-29T19:55:33;20.70;99.90
8988;DHT22;4529;51.360;12.474;2023-07-29T20:00:37;20.70;99.90
8988;DHT22;4529;51.360;12.474;2023-07-29T20:05:41;20.60;99.90
8988;DHT22;4529;51.360;12.474;2023-07-29T20:10:45;20.60;99.90
8988;DHT22;4529;51.360;12.474;2023-07-29T20:15:49;20.50;99.90
8988;DHT22;4529;51.360;12.474;2023-07-29T20:20:53;20.50;99.90
8988;DHT22;4529;51.360;12.474;2023-07-29T20:25:57;20.40;99.90
8988;DHT22;4529;51.360;12.474;2023-07-29T20:31:01;20.40;99.90
8988;DHT22;4529;51.360;12.474;2023-07-29T20:36:05;20.30;99.90
8988;DHT22;4529;51.360;12.474;2023-07-29T20:41:10;20.30;99.90
8988;DHT22;4529;51.360;12.474;2023-07-29T20:46:20;20.30;99.90
8988;DHT22;4529;51.360;12.474;2023-07-29T20:51:21;20.50;99.90
8988;DHT22;4529;51.360;12.474;2023-07-29T20:56:25;20.70;99.90
8988;DHT22;4529;51.360;12.474;2023-07-29T21:01:29;20.70;99.90
8988;DHT22;4529;51.360;12.474;2023-07-29T21:06:32;20.70;99.90
8988;DHT22;4529;51.360;12.474;2023-07-29T21:11:36;20.20;99.90
8988;DHT22;4529;51.360;12.474;2023-07-29T21:16:40;19.30;99.90
8988;DHT22;4529;51.360;12.474;2023-07-29T21:21:44;19.20;99.90
8988;DHT22;4529;51.360;12.474;2023-07-29T21:26:48;19.10;99.90
8988;DHT22;4529;51.360;12.474;2023-07-29T21:31:52;19.20;99.90
8988;DHT22;4529;51.360;12.474;2023-07-29T21:36:56;19.40;99.90
8988;DHT22;4529;51.360;12.474;2023-07-29T21:42:00;19.40;99.90
8988;DHT22;4529;51.360;12.474;2023-07-29T21:47:04;19.40;99.90
8988;DHT22;4529;51.360;12.474;2023-07-29T21:52:08;19.00;99.90
8988;DHT22;4529;51.360;12.474;2023-07-29T21:57:12;18.80;99.90
8988;DHT22;4529;51.360;12.474;2023-07-29T22:02:16;18.80;99.90
8988;DHT22;4529;51.360;12.474;2023-07-29T22:07:21;18.70;99.90
8988;DHT22;4529;51.360;12.474;2023-07-29T22:12:25;18.60;99.90
8988;DHT22;4529;51.360;12.474;2023-07-29T22:17:29;18.50;99.90
8988;DHT22;4529;51.360;12.474;2023-07-29T22:22:33;18.40;99.90
8988;DHT22;4529;51.360;12.474;2023-07-29T22:27:37;18.30;99.90
8988;DHT22;4529;51.360;12.474;2023-07-29T22:32:41;18.30;99.90
8988;DHT22;4529;51.360;12.474;2023-07-29T22:37:45;18.20;99.90
8988;DHT22;4529;51.360;12.474;2023-07-29T22:42:48;18.10;99.90
8988;DHT22;4529;51.360;12.474;2023-07-29T22:47:52;18.10;99.90
8988;DHT22;4529;51.360;12.474;2023-07-29T22:52:55;18.10;99.90
8988;DHT22;4529;51.360;12.474;2023-07-29T22:57:59;18.10;99.90
8988;DHT22;4529;51.360;12.474;2023-07-29T23:03:02;18.00;99.90
8988;DHT22;4529;51.360;12.474;2023-07-29T23:08:06;18.10;99.90
8988;DHT22;4529;51.360;12.474;2023-07-29T23:13:09;18.20;99.90
8988;DHT22;4529;51.360;12.474;2023-07-29T23:18:13;18.10;99.90
8988;DHT22;4529;51.360;12.474;2023-07-29T23:23:16;18.20;99.90
8988;DHT22;4529;51.360;12.474;2023-07-29T23:28:19;18.20;99.90
8988;DHT22;4529;51.360;12.474;2023-07-29T23:33:23;18.30;99.90
8988;DHT22;4529;51.360;12.474;2023-07-29T23:38:26;18.30;99.90
8988;DHT22;4529;51.360;12.474;2023-07-29T23:43:30;18.20;99.90
8988;DHT22;4529;51.360;12.474;2023-07-29T23:48:33;18.20;99.90
8988;DHT22;4529;51.360;12.474;2023-07-29T23:53:37;18.20;99.90
8988;DHT22;4529;51.360;12.474;2023-07-29T23:58:40;18.10;99.90
